sensor_id;sensor_type;location;lat;lon;timestamp;pressure;altitude;pressure_sealevel;temperature;humidity
16777;BME280;8505;49.456;8.164;2024-01-10T00:01:05;100871.38;;;-4.16;61.34
16777;BME280;8505;49.456;8.164;2024-01-10T00:03:33;100873.97;;;-4.16;61.23
16777;BME280;8505;49.456;8.164;2024-01-10T00:06:01;100864.53;;;-4.17;60.89
16777;BME280;8505;49.456;8.164;2024-01-10T00:08:30;100862.84;;;-3.93;60.63
16777;BME280;8505;49.456;8.164;2024-01-10T00:10:58;100867.94;;;-4.43;60.88
16777;BME280;8505;49.456;8.164;2024-01-10T00:13:26;100868.34;;;-4.29;61.04
16777;BME280;8505;49.456;8.164;2024-01-10T00:15:54;100857.44;;;-4.12;60.89
16777;BME280;8505;49.456;8.164;2024-01-10T00:18:24;100857.66;;;-3.93;60.30
16777;BME280;8505;49.456;8.164;2024-01-10T00:20:51;100858.34;;;-3.88;60.19
16777;BME280;8505;49.456;8.164;2024-01-10T00:23:20;100841.72;;;-4.06;60.84
16777;BME280;8505;49.456;8.164;2024-01-10T00:25:48;100851.09;;;-4.28;61.16
16777;BME280;8505;49.456;8.164;2024-01-10T00:28:16;100853.13;;;-4.12;61.56
16777;BME280;8505;49.456;8.164;2024-01-10T00:30:44;100854.19;;;-4.43;61.79
16777;BME280;8505;49.456;8.164;2024-01-10T00:33:14;100841.41;;;-4.22;61.16
16777;BME280;8505;49.456;8.164;2024-01-10T00:35:43;100836.94;;;-4.17;60.25
16777;BME280;8505;49.456;8.164;2024-01-10T00:38:10;100847.19;;;-4.40;61.51
16777;BME280;8505;49.456;8.164;2024-01-10T00:40:38;100836.41;;;-4.53;61.20
16777;BME280;8505;49.456;8.164;2024-01-10T00:43:06;100839.22;;;-4.60;61.89
16777;BME280;8505;49.456;8.164;2024-01-10T00:45:34;100839.28;;;-4.35;62.10
16777;BME280;8505;49.456;8.164;2024-01-10T00:48:02;100838.94;;;-4.51;62.01
16777;BME280;8505;49.456;8.164;2024-01-10T00:50:29;100832.34;;;-4.09;61.19
16777;BME280;8505;49.456;8.164;2024-01-10T00:52:58;100837.19;;;-4.24;61.07
16777;BME280;8505;49.456;8.164;2024-01-10T00:55:27;100840.16;;;-4.36;61.43
16777;BME280;8505;49.456;8.164;2024-01-10T00:57:55;100832.00;;;-4.24;61.49
16777;BME280;8505;49.456;8.164;2024-01-10T01:00:22;100840.41;;;-4.44;60.62
16777;BME280;8505;49.456;8.164;2024-01-10T01:02:50;100840.44;;;-4.19;60.75
16777;BME280;8505;49.456;8.164;2024-01-10T01:05:18;100843.22;;;-4.25;60.75
16777;BME280;8505;49.456;8.164;2024-01-10T01:07:46;100846.41;;;-4.17;60.23
16777;BME280;8505;49.456;8.164;2024-01-10T01:10:15;100850.22;;;-4.27;59.79
16777;BME280;8505;49.456;8.164;2024-01-10T01:12:42;100843.34;;;-4.28;59.96
16777;BME280;8505;49.456;8.164;2024-01-10T01:15:10;100839.44;;;-4.14;59.66
16777;BME280;8505;49.456;8.164;2024-01-10T01:17:38;100840.97;;;-4.34;60.68
16777;BME280;8505;49.456;8.164;2024-01-10T01:20:07;100837.72;;;-4.15;59.41
16777;BME280;8505;49.456;8.164;2024-01-10T01:22:35;100840.56;;;-4.22;59.33
16777;BME280;8505;49.456;8.164;2024-01-10T01:25:03;100845.19;;;-4.07;59.60
16777;BME280;8505;49.456;8.164;2024-01-10T01:27:32;100850.13;;;-3.99;59.67
16777;BME280;8505;49.456;8.164;2024-01-10T01:30:00;100847.09;;;-4.12;59.39
16777;BME280;8505;49.456;8.164;2024-01-10T01:32:27;100842.69;;;-4.09;60.11
16777;BME280;8505;49.456;8.164;2024-01-10T01:34:55;100851.00;;;-3.76;59.21
16777;BME280;8505;49.456;8.164;2024-01-10T01:37:23;100855.69;;;-3.85;59.82
16777;BME280;8505;49.456;8.164;2024-01-10T01:39:51;100846.81;;;-3.78;59.58
16777;BME280;8505;49.456;8.164;2024-01-10T01:42:18;100850.72;;;-3.91;60.14
16777;BME280;8505;49.456;8.164;2024-01-10T01:44:48;100848.47;;;-3.52;58.62
16777;BME280;8505;49.456;8.164;2024-01-10T01:47:15;100846.94;;;-3.58;58.63
16777;BME280;8505;49.456;8.164;2024-01-10T01:49:43;100849.19;;;-3.49;58.64
16777;BME280;8505;49.456;8.164;2024-01-10T01:52:12;100851.34;;;-3.60;59.23
16777;BME280;8505;49.456;8.164;2024-01-10T01:54:40;100850.25;;;-3.54;58.37
16777;BME280;8505;49.456;8.164;2024-01-10T01:57:08;100849.91;;;-3.93;59.34
16777;BME280;8505;49.456;8.164;2024-01-10T01:59:36;100842.78;;;-3.87;59.72
16777;BME280;8505;49.456;8.164;2024-01-10T02:02:05;100840.56;;;-3.97;60.17
16777;BME280;8505;49.456;8.164;2024-01-10T02:04:33;100837.13;;;-3.73;59.93
16777;BME280;8505;49.456;8.164;2024-01-10T02:07:02;100836.56;;;-3.81;60.37
16777;BME280;8505;49.456;8.164;2024-01-10T02:09:29;100838.50;;;-4.13;61.40
16777;BME280;8505;49.456;8.164;2024-01-10T02:11:57;100843.13;;;-3.96;61.37
16777;BME280;8505;49.456;8.164;2024-01-10T02:14:25;100835.28;;;-3.70;61.21
16777;BME280;8505;49.456;8.164;2024-01-10T02:16:52;100841.47;;;-3.98;60.51
16777;BME280;8505;49.456;8.164;2024-01-10T02:19:23;100841.69;;;-4.04;61.27
16777;BME280;8505;49.456;8.164;2024-01-10T02:21:53;100835.34;;;-4.21;61.62
16777;BME280;8505;49.456;8.164;2024-01-10T02:24:22;100837.88;;;-4.19;62.88
16777;BME280;8505;49.456;8.164;2024-01-10T02:26:51;100840.13;;;-4.35;63.75
16777;BME280;8505;49.456;8.164;2024-01-10T02:29:19;100833.06;;;-4.30;62.26
16777;BME280;8505;49.456;8.164;2024-01-10T02:31:47;100834.63;;;-4.26;61.13
16777;BME280;8505;49.456;8.164;2024-01-10T02:34:15;100826.69;;;-4.20;62.60
16777;BME280;8505;49.456;8.164;2024-01-10T02:36:42;100825.09;;;-4.50;64.77
16777;BME280;8505;49.456;8.164;2024-01-10T02:39:10;100824.16;;;-4.47;64.16
16777;BME280;8505;49.456;8.164;2024-01-10T02:41:37;100813.19;;;-4.03;63.49
16777;BME280;8505;49.456;8.164;2024-01-10T02:44:07;100811.47;;;-3.79;62.52
16777;BME280;8505;49.456;8.164;2024-01-10T02:46:34;100809.31;;;-4.41;63.60
16777;BME280;8505;49.456;8.164;2024-01-10T02:49:02;100800.56;;;-4.12;63.06
16777;BME280;8505;49.456;8.164;2024-01-10T02:51:31;100800.78;;;-3.93;61.05
16777;BME280;8505;49.456;8.164;2024-01-10T02:53:58;100799.66;;;-4.36;62.08
16777;BME280;8505;49.456;8.164;2024-01-10T02:56:26;100795.16;;;-4.31;62.54
16777;BME280;8505;49.456;8.164;2024-01-10T02:58:54;100796.81;;;-4.28;60.82
16777;BME280;8505;49.456;8.164;2024-01-10T03:01:23;100795.50;;;-3.90;60.75
16777;BME280;8505;49.456;8.164;2024-01-10T03:03:50;100796.53;;;-3.71;60.25
16777;BME280;8505;49.456;8.164;2024-01-10T03:06:18;100791.47;;;-3.74;60.09
16777;BME280;8505;49.456;8.164;2024-01-10T03:08:46;100794.91;;;-4.23;60.58
16777;BME280;8505;49.456;8.164;2024-01-10T03:11:13;100793.38;;;-3.79;60.96
16777;BME280;8505;49.456;8.164;2024-01-10T03:13:43;100790.06;;;-3.83;60.08
16777;BME280;8505;49.456;8.164;2024-01-10T03:16:13;100776.38;;;-3.63;59.09
16777;BME280;8505;49.456;8.164;2024-01-10T03:18:42;100773.47;;;-3.77;58.82
16777;BME280;8505;49.456;8.164;2024-01-10T03:21:10;100775.00;;;-3.72;58.92
16777;BME280;8505;49.456;8.164;2024-01-10T03:23:38;100771.72;;;-3.77;59.16
16777;BME280;8505;49.456;8.164;2024-01-10T03:26:05;100769.88;;;-3.73;58.75
16777;BME280;8505;49.456;8.164;2024-01-10T03:28:34;100768.56;;;-3.61;57.79
16777;BME280;8505;49.456;8.164;2024-01-10T03:31:02;100769.88;;;-3.73;58.36
16777;BME280;8505;49.456;8.164;2024-01-10T03:33:29;100776.38;;;-3.86;58.55
16777;BME280;8505;49.456;8.164;2024-01-10T03:35:59;100772.69;;;-3.79;59.24
16777;BME280;8505;49.456;8.164;2024-01-10T03:38:26;100770.72;;;-4.21;60.77
16777;BME280;8505;49.456;8.164;2024-01-10T03:40:54;100777.41;;;-4.15;60.74
16777;BME280;8505;49.456;8.164;2024-01-10T03:43:21;100781.09;;;-3.97;60.88
16777;BME280;8505;49.456;8.164;2024-01-10T03:45:49;100766.25;;;-3.69;60.35
16777;BME280;8505;49.456;8.164;2024-01-10T03:48:17;100763.38;;;-3.61;59.79
16777;BME280;8505;49.456;8.164;2024-01-10T03:50:44;100770.06;;;-4.02;59.71
16777;BME280;8505;49.456;8.164;2024-01-10T03:53:13;100772.88;;;-4.09;60.68
16777;BME280;8505;49.456;8.164;2024-01-10T03:55:41;100778.13;;;-3.87;59.96
16777;BME280;8505;49.456;8.164;2024-01-10T03:58:09;100777.72;;;-3.76;60.01
16777;BME280;8505;49.456;8.164;2024-01-10T04:00:37;100780.97;;;-3.94;60.17
16777;BME280;8505;49.456;8.164;2024-01-10T04:03:05;100776.56;;;-3.91;60.70
16777;BME280;8505;49.456;8.164;2024-01-10T04:05:32;100778.06;;;-3.85;60.99
16777;BME280;8505;49.456;8.164;2024-01-10T04:08:00;100777.94;;;-3.82;60.80
16777;BME280;8505;49.456;8.164;2024-01-10T04:10:30;100780.03;;;-4.17;61.75
16777;BME280;8505;49.456;8.164;2024-01-10T04:12:58;100784.13;;;-3.86;61.67
16777;BME280;8505;49.456;8.164;2024-01-10T04:15:25;100783.22;;;-4.09;61.45
16777;BME280;8505;49.456;8.164;2024-01-10T04:17:53;100780.56;;;-4.32;61.73
16777;BME280;8505;49.456;8.164;2024-01-10T04:20:21;100785.84;;;-4.35;62.13
16777;BME280;8505;49.456;8.164;2024-01-10T04:22:48;100782.75;;;-4.44;63.31
16777;BME280;8505;49.456;8.164;2024-01-10T04:25:16;100778.56;;;-4.24;62.81
16777;BME280;8505;49.456;8.164;2024-01-10T04:27:45;100788.31;;;-4.07;61.82
16777;BME280;8505;49.456;8.164;2024-01-10T04:30:13;100787.22;;;-4.25;62.56
16777;BME280;8505;49.456;8.164;2024-01-10T04:32:41;100786.00;;;-4.15;62.88
16777;BME280;8505;49.456;8.164;2024-01-10T04:35:09;100787.22;;;-4.00;62.03
16777;BME280;8505;49.456;8.164;2024-01-10T04:37:37;100782.03;;;-4.00;62.42
16777;BME280;8505;49.456;8.164;2024-01-10T04:40:06;100782.94;;;-4.01;62.10
16777;BME280;8505;49.456;8.164;2024-01-10T04:42:34;100781.97;;;-3.98;62.08
16777;BME280;8505;49.456;8.164;2024-01-10T04:45:04;100786.63;;;-3.83;61.76
16777;BME280;8505;49.456;8.164;2024-01-10T04:47:33;100783.13;;;-3.82;62.10
16777;BME280;8505;49.456;8.164;2024-01-10T04:50:01;100784.63;;;-4.00;62.58
16777;BME280;8505;49.456;8.164;2024-01-10T04:52:29;100787.41;;;-3.81;61.77
16777;BME280;8505;49.456;8.164;2024-01-10T04:54:56;100779.81;;;-3.62;61.50
16777;BME280;8505;49.456;8.164;2024-01-10T04:57:24;100790.59;;;-3.75;61.32
16777;BME280;8505;49.456;8.164;2024-01-10T04:59:52;100785.66;;;-3.81;61.26
16777;BME280;8505;49.456;8.164;2024-01-10T05:02:21;100787.41;;;-3.81;61.37
16777;BME280;8505;49.456;8.164;2024-01-10T05:04:49;100779.50;;;-3.53;60.82
16777;BME280;8505;49.456;8.164;2024-01-10T05:07:17;100779.94;;;-3.89;60.93
16777;BME280;8505;49.456;8.164;2024-01-10T05:09:44;100781.34;;;-4.30;62.43
16777;BME280;8505;49.456;8.164;2024-01-10T05:12:12;100786.34;;;-4.00;61.81
16777;BME280;8505;49.456;8.164;2024-01-10T05:14:40;100772.53;;;-3.76;61.27
16777;BME280;8505;49.456;8.164;2024-01-10T05:17:07;100778.03;;;-3.84;61.17
16777;BME280;8505;49.456;8.164;2024-01-10T05:19:36;100778.72;;;-4.03;61.92
16777;BME280;8505;49.456;8.164;2024-01-10T05:22:05;100784.50;;;-4.20;62.88
16777;BME280;8505;49.456;8.164;2024-01-10T05:24:33;100780.56;;;-4.07;62.54
16777;BME280;8505;49.456;8.164;2024-01-10T05:27:02;100775.56;;;-4.36;63.64
16777;BME280;8505;49.456;8.164;2024-01-10T05:29:30;100772.91;;;-4.10;62.59
16777;BME280;8505;49.456;8.164;2024-01-10T05:31:57;100772.91;;;-4.60;64.83
16777;BME280;8505;49.456;8.164;2024-01-10T05:34:25;100775.38;;;-4.07;63.41
16777;BME280;8505;49.456;8.164;2024-01-10T05:36:54;100774.47;;;-3.81;62.68
16777;BME280;8505;49.456;8.164;2024-01-10T05:39:22;100776.19;;;-4.30;63.41
16777;BME280;8505;49.456;8.164;2024-01-10T05:41:50;100781.03;;;-3.96;62.15
16777;BME280;8505;49.456;8.164;2024-01-10T05:44:17;100782.88;;;-3.99;61.77
16777;BME280;8505;49.456;8.164;2024-01-10T05:46:45;100779.25;;;-4.19;62.92
16777;BME280;8505;49.456;8.164;2024-01-10T05:49:14;100772.91;;;-4.10;63.72
16777;BME280;8505;49.456;8.164;2024-01-10T05:51:42;100777.25;;;-4.11;63.07
16777;BME280;8505;49.456;8.164;2024-01-10T05:54:11;100781.69;;;-4.14;62.45
16777;BME280;8505;49.456;8.164;2024-01-10T05:56:39;100779.09;;;-3.89;62.56
16777;BME280;8505;49.456;8.164;2024-01-10T05:59:07;100771.19;;;-3.63;62.11
16777;BME280;8505;49.456;8.164;2024-01-10T06:01:34;100777.88;;;-4.04;63.10
16777;BME280;8505;49.456;8.164;2024-01-10T06:04:02;100776.44;;;-4.13;63.16
16777;BME280;8505;49.456;8.164;2024-01-10T06:06:30;100783.53;;;-4.18;62.76
16777;BME280;8505;49.456;8.164;2024-01-10T06:08:58;100784.38;;;-3.69;62.23
16777;BME280;8505;49.456;8.164;2024-01-10T06:11:27;100784.28;;;-3.66;62.16
16777;BME280;8505;49.456;8.164;2024-01-10T06:13:56;100786.19;;;-3.71;62.88
16777;BME280;8505;49.456;8.164;2024-01-10T06:16:24;100793.47;;;-3.82;62.96
16777;BME280;8505;49.456;8.164;2024-01-10T06:18:52;100776.31;;;-3.61;62.54
16777;BME280;8505;49.456;8.164;2024-01-10T06:21:19;100778.41;;;-3.48;61.76
16777;BME280;8505;49.456;8.164;2024-01-10T06:23:47;100794.84;;;-3.49;60.95
16777;BME280;8505;49.456;8.164;2024-01-10T06:26:15;100799.84;;;-3.68;61.74
16777;BME280;8505;49.456;8.164;2024-01-10T06:28:44;100795.13;;;-3.80;61.33
16777;BME280;8505;49.456;8.164;2024-01-10T06:31:11;100792.88;;;-3.65;61.82
16777;BME280;8505;49.456;8.164;2024-01-10T06:33:39;100798.72;;;-4.09;62.03
16777;BME280;8505;49.456;8.164;2024-01-10T06:36:07;100793.19;;;-4.23;63.21
16777;BME280;8505;49.456;8.164;2024-01-10T06:38:35;100795.31;;;-3.86;62.67
16777;BME280;8505;49.456;8.164;2024-01-10T06:41:07;100796.81;;;-4.03;62.74
16777;BME280;8505;49.456;8.164;2024-01-10T06:43:36;100794.66;;;-4.16;62.73
16777;BME280;8505;49.456;8.164;2024-01-10T06:46:05;100801.03;;;-4.26;63.61
16777;BME280;8505;49.456;8.164;2024-01-10T06:48:32;100806.97;;;-4.22;63.01
16777;BME280;8505;49.456;8.164;2024-01-10T06:51:00;100805.44;;;-4.03;62.90
16777;BME280;8505;49.456;8.164;2024-01-10T06:53:28;100804.75;;;-3.83;62.35
16777;BME280;8505;49.456;8.164;2024-01-10T06:55:56;100808.66;;;-3.96;62.46
16777;BME280;8505;49.456;8.164;2024-01-10T06:58:23;100804.03;;;-3.88;62.40
16777;BME280;8505;49.456;8.164;2024-01-10T07:00:51;100802.44;;;-4.42;64.09
16777;BME280;8505;49.456;8.164;2024-01-10T07:03:20;100805.50;;;-4.31;63.49
16777;BME280;8505;49.456;8.164;2024-01-10T07:05:48;100802.38;;;-4.14;63.02
16777;BME280;8505;49.456;8.164;2024-01-10T07:08:16;100802.81;;;-3.78;62.40
16777;BME280;8505;49.456;8.164;2024-01-10T07:10:44;100812.31;;;-3.79;62.58
16777;BME280;8505;49.456;8.164;2024-01-10T07:13:11;100808.72;;;-3.75;62.37
16777;BME280;8505;49.456;8.164;2024-01-10T07:15:39;100810.91;;;-3.87;62.75
16777;BME280;8505;49.456;8.164;2024-01-10T07:18:06;100814.91;;;-3.79;62.95
16777;BME280;8505;49.456;8.164;2024-01-10T07:20:36;100811.28;;;-3.98;62.28
16777;BME280;8505;49.456;8.164;2024-01-10T07:23:04;100810.22;;;-4.17;63.99
16777;BME280;8505;49.456;8.164;2024-01-10T07:25:32;100802.84;;;-3.55;62.29
16777;BME280;8505;49.456;8.164;2024-01-10T07:28:00;100820.28;;;-3.60;62.71
16777;BME280;8505;49.456;8.164;2024-01-10T07:30:28;100816.41;;;-3.96;63.38
16777;BME280;8505;49.456;8.164;2024-01-10T07:32:59;100815.63;;;-3.75;63.37
16777;BME280;8505;49.456;8.164;2024-01-10T07:35:28;100816.75;;;-3.34;75.91
16777;BME280;8505;49.456;8.164;2024-01-10T07:37:58;100829.38;;;-3.27;69.89
16777;BME280;8505;49.456;8.164;2024-01-10T07:40:26;100836.53;;;-2.88;66.22
16777;BME280;8505;49.456;8.164;2024-01-10T07:42:53;100829.56;;;-2.86;63.44
16777;BME280;8505;49.456;8.164;2024-01-10T07:45:22;100826.97;;;-3.31;62.02
16777;BME280;8505;49.456;8.164;2024-01-10T07:47:49;100826.66;;;-3.00;62.50
16777;BME280;8505;49.456;8.164;2024-01-10T07:50:17;100840.66;;;-3.76;62.29
16777;BME280;8505;49.456;8.164;2024-01-10T07:52:46;100843.00;;;-3.68;63.09
16777;BME280;8505;49.456;8.164;2024-01-10T07:55:15;100847.31;;;-3.45;62.02
16777;BME280;8505;49.456;8.164;2024-01-10T07:57:43;100841.66;;;-3.55;61.88
16777;BME280;8505;49.456;8.164;2024-01-10T08:00:11;100839.34;;;-3.62;62.76
16777;BME280;8505;49.456;8.164;2024-01-10T08:02:39;100847.00;;;-3.36;60.92
16777;BME280;8505;49.456;8.164;2024-01-10T08:05:08;100844.38;;;-3.35;62.15
16777;BME280;8505;49.456;8.164;2024-01-10T08:07:36;100848.28;;;-3.71;62.26
16777;BME280;8505;49.456;8.164;2024-01-10T08:10:05;100852.38;;;-3.41;62.12
16777;BME280;8505;49.456;8.164;2024-01-10T08:12:34;100853.06;;;-3.14;61.81
16777;BME280;8505;49.456;8.164;2024-01-10T08:15:03;100853.66;;;-3.29;61.67
16777;BME280;8505;49.456;8.164;2024-01-10T08:17:30;100864.19;;;-3.34;61.25
16777;BME280;8505;49.456;8.164;2024-01-10T08:19:59;100861.41;;;-3.29;61.69
16777;BME280;8505;49.456;8.164;2024-01-10T08:22:30;100859.31;;;-3.19;61.41
16777;BME280;8505;49.456;8.164;2024-01-10T08:24:58;100858.66;;;-3.24;62.08
16777;BME280;8505;49.456;8.164;2024-01-10T08:27:25;100855.72;;;-3.39;63.08
16777;BME280;8505;49.456;8.164;2024-01-10T08:29:55;100865.63;;;-3.27;61.11
16777;BME280;8505;49.456;8.164;2024-01-10T08:32:23;100860.88;;;-2.92;61.96
16777;BME280;8505;49.456;8.164;2024-01-10T08:34:50;100854.84;;;-2.93;61.45
16777;BME280;8505;49.456;8.164;2024-01-10T08:37:18;100852.31;;;-3.16;61.77
16777;BME280;8505;49.456;8.164;2024-01-10T08:39:46;100866.69;;;-3.32;62.19
16777;BME280;8505;49.456;8.164;2024-01-10T08:42:13;100854.75;;;-3.13;62.26
16777;BME280;8505;49.456;8.164;2024-01-10T08:44:41;100857.16;;;-2.85;61.00
16777;BME280;8505;49.456;8.164;2024-01-10T08:47:11;100849.00;;;-2.76;61.25
16777;BME280;8505;49.456;8.164;2024-01-10T08:49:38;100858.09;;;-3.09;61.61
16777;BME280;8505;49.456;8.164;2024-01-10T08:52:06;100850.16;;;-2.83;60.97
16777;BME280;8505;49.456;8.164;2024-01-10T08:54:35;100843.78;;;-2.74;61.28
16777;BME280;8505;49.456;8.164;2024-01-10T08:57:03;100847.28;;;-2.54;60.40
16777;BME280;8505;49.456;8.164;2024-01-10T08:59:31;100856.81;;;-2.54;59.99
16777;BME280;8505;49.456;8.164;2024-01-10T09:01:59;100851.03;;;-2.19;59.98
16777;BME280;8505;49.456;8.164;2024-01-10T09:04:28;100856.84;;;-2.56;60.30
16777;BME280;8505;49.456;8.164;2024-01-10T09:06:56;100849.84;;;-2.32;60.17
16777;BME280;8505;49.456;8.164;2024-01-10T09:09:23;100847.97;;;-2.08;59.47
16777;BME280;8505;49.456;8.164;2024-01-10T09:11:51;100852.31;;;-2.51;59.70
16777;BME280;8505;49.456;8.164;2024-01-10T09:14:19;100855.25;;;-2.16;59.71
16777;BME280;8505;49.456;8.164;2024-01-10T09:16:47;100854.50;;;-2.62;60.76
16777;BME280;8505;49.456;8.164;2024-01-10T09:19:15;100860.72;;;-2.66;60.64
16777;BME280;8505;49.456;8.164;2024-01-10T09:21:45;100859.38;;;-2.98;61.75
16777;BME280;8505;49.456;8.164;2024-01-10T09:24:13;100858.75;;;-3.04;62.50
16777;BME280;8505;49.456;8.164;2024-01-10T09:26:54;100858.13;;;-2.44;61.08
16777;BME280;8505;49.456;8.164;2024-01-10T09:29:22;100859.16;;;-2.48;61.01
16777;BME280;8505;49.456;8.164;2024-01-10T09:31:50;100860.28;;;-1.73;59.93
16777;BME280;8505;49.456;8.164;2024-01-10T09:34:18;100865.41;;;-1.51;58.58
16777;BME280;8505;49.456;8.164;2024-01-10T09:36:48;100852.69;;;-1.18;58.09
16777;BME280;8505;49.456;8.164;2024-01-10T09:39:16;100855.75;;;-1.29;57.16
16777;BME280;8505;49.456;8.164;2024-01-10T09:41:46;100867.50;;;-1.01;57.36
16777;BME280;8505;49.456;8.164;2024-01-10T09:44:17;100870.78;;;-1.16;57.17
16777;BME280;8505;49.456;8.164;2024-01-10T09:46:51;100865.72;;;-1.38;57.41
16777;BME280;8505;49.456;8.164;2024-01-10T09:49:20;100869.81;;;-1.53;57.84
16777;BME280;8505;49.456;8.164;2024-01-10T09:51:57;100878.28;;;-1.29;58.25
16777;BME280;8505;49.456;8.164;2024-01-10T09:54:26;100870.38;;;-1.85;59.29
16777;BME280;8505;49.456;8.164;2024-01-10T09:56:53;100873.31;;;-1.54;58.74
16777;BME280;8505;49.456;8.164;2024-01-10T09:59:22;100868.88;;;-1.71;59.02
16777;BME280;8505;49.456;8.164;2024-01-10T10:01:50;100870.09;;;-1.20;57.98
16777;BME280;8505;49.456;8.164;2024-01-10T10:04:20;100876.69;;;-1.52;58.58
16777;BME280;8505;49.456;8.164;2024-01-10T10:06:59;100870.19;;;-1.60;58.95
16777;BME280;8505;49.456;8.164;2024-01-10T10:09:28;100870.59;;;-1.12;57.96
16777;BME280;8505;49.456;8.164;2024-01-10T10:11:57;100873.25;;;-1.52;58.14
16777;BME280;8505;49.456;8.164;2024-01-10T10:14:28;100878.53;;;-1.35;58.31
16777;BME280;8505;49.456;8.164;2024-01-10T10:16:56;100865.13;;;-1.45;58.58
16777;BME280;8505;49.456;8.164;2024-01-10T10:19:24;100868.19;;;-1.16;57.58
16777;BME280;8505;49.456;8.164;2024-01-10T10:22:09;100875.84;;;-1.52;59.01
16777;BME280;8505;49.456;8.164;2024-01-10T10:24:37;100872.75;;;-1.03;57.87
16777;BME280;8505;49.456;8.164;2024-01-10T10:27:07;100873.81;;;-1.07;57.52
16777;BME280;8505;49.456;8.164;2024-01-10T10:29:36;100861.16;;;-1.14;58.03
16777;BME280;8505;49.456;8.164;2024-01-10T10:32:05;100869.09;;;-1.36;58.42
16777;BME280;8505;49.456;8.164;2024-01-10T10:34:35;100866.84;;;-1.25;58.90
16777;BME280;8505;49.456;8.164;2024-01-10T10:37:03;100863.66;;;-1.50;59.40
16777;BME280;8505;49.456;8.164;2024-01-10T10:39:34;100872.13;;;-1.86;59.87
16777;BME280;8505;49.456;8.164;2024-01-10T10:42:04;100869.72;;;-1.31;59.62
16777;BME280;8505;49.456;8.164;2024-01-10T10:44:35;100862.19;;;-1.56;59.41
16777;BME280;8505;49.456;8.164;2024-01-10T10:47:04;100853.16;;;-1.68;59.64
16777;BME280;8505;49.456;8.164;2024-01-10T10:49:46;100846.75;;;-1.79;60.41
16777;BME280;8505;49.456;8.164;2024-01-10T10:52:16;100850.25;;;-1.41;58.98
16777;BME280;8505;49.456;8.164;2024-01-10T10:54:46;100852.84;;;-1.41;60.13
16777;BME280;8505;49.456;8.164;2024-01-10T10:57:16;100846.97;;;-1.07;58.75
16777;BME280;8505;49.456;8.164;2024-01-10T10:59:45;100842.06;;;-0.95;58.69
16777;BME280;8505;49.456;8.164;2024-01-10T11:02:20;100845.69;;;-0.99;58.79
16777;BME280;8505;49.456;8.164;2024-01-10T11:04:54;100848.72;;;-0.70;57.94
16777;BME280;8505;49.456;8.164;2024-01-10T11:07:23;100844.13;;;-0.65;57.03
16777;BME280;8505;49.456;8.164;2024-01-10T11:09:53;100841.75;;;-0.70;57.46
16777;BME280;8505;49.456;8.164;2024-01-10T11:12:28;100841.66;;;-0.50;57.01
16777;BME280;8505;49.456;8.164;2024-01-10T11:15:14;100849.38;;;-1.03;57.44
16777;BME280;8505;49.456;8.164;2024-01-10T11:18:02;100843.28;;;-0.66;57.13
16777;BME280;8505;49.456;8.164;2024-01-10T11:20:47;100849.56;;;-0.89;56.42
16777;BME280;8505;49.456;8.164;2024-01-10T11:23:35;100840.91;;;-0.70;57.10
16777;BME280;8505;49.456;8.164;2024-01-10T11:26:06;100843.09;;;-0.44;56.46
16777;BME280;8505;49.456;8.164;2024-01-10T11:28:36;100840.50;;;-0.44;55.89
16777;BME280;8505;49.456;8.164;2024-01-10T11:31:05;100845.28;;;-0.54;55.65
16777;BME280;8505;49.456;8.164;2024-01-10T11:33:35;100853.22;;;-0.21;55.24
16777;BME280;8505;49.456;8.164;2024-01-10T11:36:13;100841.41;;;-0.45;55.89
16777;BME280;8505;49.456;8.164;2024-01-10T11:38:43;100843.13;;;-0.10;54.84
16777;BME280;8505;49.456;8.164;2024-01-10T11:41:16;100836.53;;;0.00;54.98
16777;BME280;8505;49.456;8.164;2024-01-10T11:46:52;100837.97;;;0.23;53.59
16777;BME280;8505;49.456;8.164;2024-01-10T11:49:22;100835.50;;;1.02;52.32
16777;BME280;8505;49.456;8.164;2024-01-10T11:51:53;100832.22;;;0.67;51.69
16777;BME280;8505;49.456;8.164;2024-01-10T11:54:35;100829.34;;;0.71;52.92
16777;BME280;8505;49.456;8.164;2024-01-10T11:57:07;100830.47;;;0.50;52.31
16777;BME280;8505;49.456;8.164;2024-01-10T11:59:35;100821.72;;;0.84;52.04
16777;BME280;8505;49.456;8.164;2024-01-10T12:02:03;100823.41;;;1.01;51.77
16777;BME280;8505;49.456;8.164;2024-01-10T12:04:32;100827.44;;;1.06;52.11
16777;BME280;8505;49.456;8.164;2024-01-10T12:07:12;100819.16;;;1.75;49.78
16777;BME280;8505;49.456;8.164;2024-01-10T12:09:41;100816.72;;;2.16;48.06
16777;BME280;8505;49.456;8.164;2024-01-10T12:12:11;100827.03;;;2.33;48.86
16777;BME280;8505;49.456;8.164;2024-01-10T12:14:40;100813.75;;;2.79;47.42
16777;BME280;8505;49.456;8.164;2024-01-10T12:17:09;100811.88;;;3.49;46.11
16777;BME280;8505;49.456;8.164;2024-01-10T12:19:37;100804.56;;;3.93;44.57
16777;BME280;8505;49.456;8.164;2024-01-10T12:22:05;100800.44;;;3.10;45.14
16777;BME280;8505;49.456;8.164;2024-01-10T12:24:42;100796.81;;;3.92;44.15
16777;BME280;8505;49.456;8.164;2024-01-10T12:27:12;100799.22;;;4.07;43.64
16777;BME280;8505;49.456;8.164;2024-01-10T12:29:40;100794.09;;;3.54;44.78
16777;BME280;8505;49.456;8.164;2024-01-10T12:32:08;100792.94;;;4.48;42.95
16777;BME280;8505;49.456;8.164;2024-01-10T12:34:38;100802.81;;;4.94;40.99
16777;BME280;8505;49.456;8.164;2024-01-10T12:37:06;100799.22;;;4.95;41.25
16777;BME280;8505;49.456;8.164;2024-01-10T12:39:34;100807.94;;;4.46;41.36
16777;BME280;8505;49.456;8.164;2024-01-10T12:42:03;100795.47;;;4.37;42.01
16777;BME280;8505;49.456;8.164;2024-01-10T12:44:32;100799.88;;;4.36;42.27
16777;BME280;8505;49.456;8.164;2024-01-10T12:47:00;100788.72;;;4.95;41.65
16777;BME280;8505;49.456;8.164;2024-01-10T12:49:29;100782.94;;;5.26;41.02
16777;BME280;8505;49.456;8.164;2024-01-10T12:51:57;100789.16;;;5.25;40.21
16777;BME280;8505;49.456;8.164;2024-01-10T12:54:25;100793.00;;;5.32;40.31
16777;BME280;8505;49.456;8.164;2024-01-10T12:56:52;100786.59;;;4.63;41.70
16777;BME280;8505;49.456;8.164;2024-01-10T12:59:22;100792.66;;;4.76;41.70
16777;BME280;8505;49.456;8.164;2024-01-10T13:01:51;100791.47;;;5.29;40.94
16777;BME280;8505;49.456;8.164;2024-01-10T13:04:19;100783.91;;;4.14;41.81
16777;BME280;8505;49.456;8.164;2024-01-10T13:06:47;100784.66;;;2.42;46.18
16777;BME280;8505;49.456;8.164;2024-01-10T13:09:15;100785.50;;;2.57;45.56
16777;BME280;8505;49.456;8.164;2024-01-10T13:11:43;100788.47;;;2.65;46.94
16777;BME280;8505;49.456;8.164;2024-01-10T13:14:11;100791.28;;;1.46;49.06